Time;durP1;ratioP1;P1;durP2;ratioP2;P2;SDS_P1;SDS_P2;PMS_P1;PMS_P2;Temp;Humidity;BMP_temperature;BMP_pressure;BME280_temperature;BME280_humidity;BME280_pressure;Samples;Min_cycle;Max_cycle;Signal;HPM_P1;HPM_P2
2023/01/12 00:02:06;;;;;;;;;;;17.20;53.90;;;;;;5130421;27;19947;-73
2023/01/12 00:04:32;;;;;;;;;;;17.20;54.00;;;;;;5096547;28;19919;-73
2023/01/12 00:06:58;;;;;;;;;;;17.10;53.90;;;;;;5096576;28;19969;-73
2023/01/12 00:09:23;;;;;;;;;;;17.10;54.10;;;;;;5114603;28;19923;-74
2023/01/12 00:11:49;;;;;;;;;;;17.10;54.20;;;;;;5115115;28;20010;-74
2023/01/12 00:14:14;;;;;;;;;;;17.00;54.30;;;;;;5096511;28;19923;-73
2023/01/12 00:16:40;;;;;;;;;;;17.00;54.50;;;;;;5114609;28;20334;-73
2023/01/12 00:22:10;;;;;;;;;;;16.90;54.60;;;;;;5126042;27;1911689;-71
2023/01/12 00:24:37;;;;;;;;;;;16.90;54.60;;;;;;5153372;27;20299;-71
2023/01/12 00:27:04;;;;;;;;;;;16.90;54.80;;;;;;5153610;27;19919;-72
2023/01/12 00:29:29;;;;;;;;;;;16.80;54.80;;;;;;5153439;27;20354;-72
2023/01/12 00:31:56;;;;;;;;;;;16.80;54.90;;;;;;5174024;27;20017;-71
2023/01/12 00:34:22;;;;;;;;;;;16.80;55.00;;;;;;5174512;27;19925;-72
2023/01/12 00:36:48;;;;;;;;;;;16.80;55.10;;;;;;5174516;27;20380;-72
2023/01/12 00:39:14;;;;;;;;;;;16.80;55.20;;;;;;5174326;27;19969;-72
2023/01/12 00:47:14;;;;;;;;;;;16.80;55.40;;;;;;5192649;27;19918;-72
2023/01/12 00:49:40;;;;;;;;;;;16.70;55.40;;;;;;5174141;27;19919;-71
2023/01/12 00:52:06;;;;;;;;;;;16.70;55.40;;;;;;5173924;27;20372;-72
2023/01/12 00:54:33;;;;;;;;;;;16.60;55.40;;;;;;5174233;27;20409;-71
2023/01/12 00:56:59;;;;;;;;;;;16.60;55.40;;;;;;5174254;27;19998;-71
2023/01/12 00:59:24;;;;;;;;;;;16.60;55.50;;;;;;5173556;27;20010;-72
2023/01/12 01:01:50;;;;;;;;;;;16.60;55.50;;;;;;5173711;27;19919;-71
2023/01/12 01:04:18;;;;;;;;;;;16.60;55.50;;;;;;5173585;27;19922;-72
2023/01/12 01:06:44;;;;;;;;;;;16.60;55.60;;;;;;5192747;27;19936;-73
2023/01/12 01:09:09;;;;;;;;;;;16.50;55.60;;;;;;5173549;27;19918;-72
2023/01/12 01:11:35;;;;;;;;;;;16.60;55.70;;;;;;5192346;27;19919;-72
2023/01/12 01:14:01;;;;;;;;;;;16.50;55.70;;;;;;5173599;27;20300;-71
2023/01/12 01:16:27;;;;;;;;;;;16.60;55.80;;;;;;5173794;27;20013;-72
2023/01/12 01:18:52;;;;;;;;;;;16.50;55.80;;;;;;5173846;27;20348;-72
2023/01/12 01:21:18;;;;;;;;;;;16.50;56.60;;;;;;5172872;27;20306;-71
2023/01/12 01:23:46;;;;;;;;;;;16.50;55.90;;;;;;5192124;27;19918;-71
2023/01/12 01:26:14;;;;;;;;;;;16.50;55.90;;;;;;5173445;27;19918;-71
2023/01/12 01:28:40;;;;;;;;;;;16.50;55.90;;;;;;5192103;27;20287;-72
2023/01/12 01:31:08;;;;;;;;;;;16.50;55.90;;;;;;5171105;27;19918;-71
2023/01/12 01:33:34;;;;;;;;;;;16.50;56.00;;;;;;5143017;27;19971;-71
2023/01/12 01:35:59;;;;;;;;;;;16.50;56.00;;;;;;5138561;27;19919;-72
2023/01/12 01:38:25;;;;;;;;;;;16.40;56.00;;;;;;5138393;27;19971;-72
2023/01/12 01:40:51;;;;;;;;;;;16.40;56.00;;;;;;5156945;27;19924;-71
2023/01/12 01:43:17;;;;;;;;;;;16.40;56.00;;;;;;5138321;27;20214;-72
2023/01/12 01:45:44;;;;;;;;;;;16.40;56.00;;;;;;5156807;27;19942;-71
2023/01/12 01:48:11;;;;;;;;;;;16.50;56.00;;;;;;5156754;27;19926;-71
2023/01/12 01:50:38;;;;;;;;;;;16.80;55.70;;;;;;5156641;27;20009;-71
2023/01/12 01:53:06;;;;;;;;;;;17.20;54.90;;;;;;5138302;27;19923;-71
2023/01/12 01:55:35;;;;;;;;;;;17.60;54.00;;;;;;5138139;27;19923;-72
2023/01/12 01:58:04;;;;;;;;;;;18.10;52.90;;;;;;5155866;27;20300;-72
2023/01/12 02:00:33;;;;;;;;;;;18.80;51.60;;;;;;5137949;27;19931;-71
2023/01/12 02:03:00;;;;;;;;;;;19.60;49.90;;;;;;5138007;27;20396;-69
2023/01/12 02:05:27;;;;;;;;;;;20.30;48.20;;;;;;5137899;27;19926;-71
2023/01/12 02:07:53;;;;;;;;;;;21.00;47.50;;;;;;5138099;27;19926;-71
2023/01/12 02:10:19;;;;;;;;;;;21.50;45.50;;;;;;5138044;27;19919;-72
2023/01/12 02:18:27;;;;;;;;;;;22.40;43.60;;;;;;5155939;27;19969;-72
2023/01/12 02:21:02;;;;;;;;;;;22.40;43.50;;;;;;5137403;27;20298;-72
2023/01/12 02:26:28;;;;;;;;;;;22.20;43.50;;;;;;5109933;27;19912;-72
2023/01/12 02:31:41;;;;;;;;;;;21.90;44.10;;;;;;5110433;27;20289;-72
2023/01/12 02:34:14;;;;;;;;;;;21.70;44.40;;;;;;5088592;28;19975;-72
2023/01/12 02:39:25;;;;;;;;;;;21.30;45.10;;;;;;5110288;27;19941;-72
2023/01/12 02:42:40;;;;;;;;;;;21.00;45.40;;;;;;5109241;28;19927;-72
2023/01/12 02:45:03;;;;;;;;;;;20.90;45.90;;;;;;5109179;28;19927;-72
2023/01/12 02:50:20;;;;;;;;;;;20.50;46.70;;;;;;5110042;27;19940;-72
2023/01/12 02:52:49;;;;;;;;;;;20.30;47.00;;;;;;5109224;28;19920;-73
2023/01/12 02:55:16;;;;;;;;;;;20.10;47.30;;;;;;5110220;28;19920;-73
2023/01/12 02:57:42;;;;;;;;;;;20.00;47.60;;;;;;5110140;28;20007;-72
2023/01/12 03:00:08;;;;;;;;;;;19.90;47.90;;;;;;5108713;28;20010;-73
2023/01/12 03:02:34;;;;;;;;;;;19.70;48.20;;;;;;5109181;28;19946;-72
2023/01/12 03:05:00;;;;;;;;;;;19.60;48.50;;;;;;5108730;28;20387;-72
2023/01/12 03:07:35;;;;;;;;;;;19.40;48.70;;;;;;5109081;28;19956;-72
2023/01/12 03:10:09;;;;;;;;;;;19.30;48.90;;;;;;5108559;28;19973;-72
2023/01/12 03:12:36;;;;;;;;;;;19.20;49.20;;;;;;5108554;28;19920;-72
2023/01/12 03:15:07;;;;;;;;;;;19.10;49.50;;;;;;5108744;28;20019;-72
2023/01/12 03:17:37;;;;;;;;;;;19.10;49.70;;;;;;5108863;28;19924;-72
2023/01/12 03:20:05;;;;;;;;;;;19.10;49.80;;;;;;5108092;28;19947;-72
2023/01/12 03:22:33;;;;;;;;;;;19.10;49.70;;;;;;5108145;28;19943;-74
2023/01/12 03:25:01;;;;;;;;;;;19.30;49.40;;;;;;5108403;28;20019;-72
2023/01/12 03:27:28;;;;;;;;;;;19.40;49.20;;;;;;5109617;28;20317;-72
2023/01/12 03:29:59;;;;;;;;;;;19.60;48.90;;;;;;5107506;28;19924;-72
2023/01/12 03:32:25;;;;;;;;;;;19.70;48.50;;;;;;5109421;28;19927;-71
2023/01/12 03:34:51;;;;;;;;;;;19.80;48.20;;;;;;5107646;28;19920;-71
2023/01/12 03:37:35;;;;;;;;;;;19.90;48.00;;;;;;5109470;28;19927;-71
2023/01/12 03:40:11;;;;;;;;;;;20.00;47.80;;;;;;5109379;28;20294;-71
2023/01/12 03:42:40;;;;;;;;;;;20.00;47.60;;;;;;5108649;28;19920;-72
2023/01/12 03:47:48;;;;;;;;;;;20.10;47.50;;;;;;5089167;28;19935;-71
2023/01/12 03:50:15;;;;;;;;;;;20.10;47.50;;;;;;5088394;28;20409;-71
2023/01/12 03:52:42;;;;;;;;;;;20.10;47.50;;;;;;5089191;28;19928;-72
2023/01/12 03:55:10;;;;;;;;;;;20.00;47.50;;;;;;5088783;28;19925;-72
2023/01/12 03:57:36;;;;;;;;;;;20.00;47.50;;;;;;5088856;28;19920;-72
2023/01/12 04:00:04;;;;;;;;;;;20.00;47.60;;;;;;5088294;28;20440;-71
2023/01/12 04:02:29;;;;;;;;;;;19.90;47.60;;;;;;5089725;28;20291;-72
2023/01/12 04:04:55;;;;;;;;;;;19.80;47.70;;;;;;5088342;28;19927;-71
2023/01/12 04:07:22;;;;;;;;;;;19.80;47.90;;;;;;5089393;28;19931;-72
2023/01/12 04:09:48;;;;;;;;;;;19.70;48.00;;;;;;5088599;28;20011;-72
2023/01/12 04:12:13;;;;;;;;;;;19.60;48.20;;;;;;5088146;28;20058;-72
2023/01/12 04:14:40;;;;;;;;;;;19.60;48.30;;;;;;5088513;28;19928;-72
2023/01/12 04:17:07;;;;;;;;;;;19.50;48.50;;;;;;5088671;28;20048;-72
2023/01/12 04:19:32;;;;;;;;;;;19.40;48.60;;;;;;5089396;28;19921;-72
2023/01/12 04:24:43;;;;;;;;;;;19.30;48.90;;;;;;5087813;28;19921;-72
2023/01/12 04:27:09;;;;;;;;;;;19.20;49.10;;;;;;5087990;28;19969;-72
2023/01/12 04:29:35;;;;;;;;;;;19.20;49.20;;;;;;5088249;28;19920;-71
2023/01/12 04:32:00;;;;;;;;;;;19.20;49.40;;;;;;5087745;28;19966;-71
2023/01/12 04:34:26;;;;;;;;;;;19.20;49.40;;;;;;5088024;28;19971;-71
2023/01/12 04:36:51;;;;;;;;;;;19.10;49.30;;;;;;5088933;28;19920;-71
2023/01/12 04:39:17;;;;;;;;;;;19.20;49.30;;;;;;5088986;28;19921;-72
2023/01/12 04:41:42;;;;;;;;;;;19.20;49.20;;;;;;5088990;28;19920;-71
2023/01/12 04:44:08;;;;;;;;;;;19.30;49.20;;;;;;5087619;28;19939;-71
2023/01/12 04:46:33;;;;;;;;;;;19.40;49.10;;;;;;5087330;28;19924;-72
2023/01/12 04:48:59;;;;;;;;;;;19.40;48.90;;;;;;5087443;28;20007;-71
2023/01/12 04:51:25;;;;;;;;;;;19.40;48.80;;;;;;5088764;28;19921;-71
2023/01/12 04:53:53;;;;;;;;;;;19.50;48.70;;;;;;5087134;28;20275;-72
2023/01/12 04:56:19;;;;;;;;;;;19.50;48.50;;;;;;5088553;28;20367;-71
2023/01/12 04:58:45;;;;;;;;;;;19.50;48.50;;;;;;5076008;28;19920;-71
2023/01/12 05:01:12;;;;;;;;;;;19.60;48.50;;;;;;5075179;28;20298;-72
2023/01/12 05:03:37;;;;;;;;;;;19.60;48.30;;;;;;5074103;28;19920;-72
2023/01/12 05:06:03;;;;;;;;;;;19.60;48.30;;;;;;5074939;28;20298;-71
2023/01/12 05:11:17;;;;;;;;;;;19.60;48.10;;;;;;5073461;28;19921;-72
2023/01/12 05:13:43;;;;;;;;;;;19.70;48.10;;;;;;5073521;28;19927;-71
2023/01/12 05:16:09;;;;;;;;;;;19.70;48.00;;;;;;5073580;28;19920;-72
2023/01/12 05:18:35;;;;;;;;;;;19.70;47.90;;;;;;5074094;28;19974;-72
2023/01/12 05:21:00;;;;;;;;;;;19.80;47.90;;;;;;5073646;28;19920;-71
2023/01/12 05:23:26;;;;;;;;;;;19.70;47.80;;;;;;5073278;28;20337;-72
2023/01/12 05:25:52;;;;;;;;;;;19.80;47.80;;;;;;5074585;28;19931;-71
2023/01/12 05:28:17;;;;;;;;;;;19.90;47.80;;;;;;5073620;28;20371;-71
2023/01/12 05:30:43;;;;;;;;;;;19.80;47.70;;;;;;5073649;28;19927;-73
2023/01/12 05:33:14;;;;;;;;;;;19.80;47.60;;;;;;5074343;28;19926;-75
2023/01/12 05:35:40;;;;;;;;;;;19.80;47.60;;;;;;5073436;28;19946;-74
2023/01/12 05:38:08;;;;;;;;;;;19.80;48.40;;;;;;5072779;28;19920;-74
2023/01/12 05:40:34;;;;;;;;;;;19.80;47.70;;;;;;5073231;28;19928;-74
2023/01/12 05:45:45;;;;;;;;;;;19.70;47.80;;;;;;5077492;28;19923;-74
2023/01/12 05:48:10;;;;;;;;;;;19.70;47.90;;;;;;5076291;28;19920;-74
2023/01/12 05:50:36;;;;;;;;;;;19.60;47.90;;;;;;5076451;28;19961;-74
2023/01/12 05:53:01;;;;;;;;;;;19.70;48.00;;;;;;5093589;28;19920;-74
2023/01/12 05:55:27;;;;;;;;;;;19.60;48.10;;;;;;5076089;28;20365;-74
2023/01/12 05:57:53;;;;;;;;;;;19.60;48.10;;;;;;5076440;28;19977;-74
2023/01/12 06:00:18;;;;;;;;;;;19.50;48.20;;;;;;5076408;28;20321;-74
2023/01/12 06:02:44;;;;;;;;;;;19.50;48.20;;;;;;5094158;28;20329;-74
2023/01/12 06:05:09;;;;;;;;;;;19.50;48.30;;;;;;5076188;28;19924;-74
2023/01/12 06:07:36;;;;;;;;;;;19.40;48.30;;;;;;5094191;28;20385;-74
2023/01/12 06:10:01;;;;;;;;;;;19.40;48.30;;;;;;5075445;28;19930;-74
2023/01/12 06:15:12;;;;;;;;;;;19.40;48.40;;;;;;5075728;28;19920;-74
2023/01/12 06:17:38;;;;;;;;;;;19.40;48.40;;;;;;5075711;28;20007;-74
2023/01/12 06:20:04;;;;;;;;;;;19.40;48.50;;;;;;5075905;28;20015;-77
2023/01/12 06:22:30;;;;;;;;;;;19.40;48.60;;;;;;5076033;28;19920;-76
2023/01/12 06:24:55;;;;;;;;;;;19.30;48.60;;;;;;5075684;28;20298;-75
2023/01/12 06:27:24;;;;;;;;;;;19.40;48.70;;;;;;5075723;28;19964;-74
2023/01/12 06:29:50;;;;;;;;;;;19.40;48.70;;;;;;5075389;28;20375;-74
2023/01/12 06:32:15;;;;;;;;;;;19.40;48.70;;;;;;5075638;28;19920;-74
2023/01/12 06:34:41;;;;;;;;;;;19.30;48.70;;;;;;5075729;28;19920;-74
2023/01/12 06:37:07;;;;;;;;;;;19.40;48.70;;;;;;5075614;28;19934;-74
2023/01/12 06:39:33;;;;;;;;;;;19.40;48.70;;;;;;5092606;28;20045;-74
2023/01/12 06:42:30;;;;;;;;;;;19.40;48.70;;;;;;5091337;28;19969;-74
2023/01/12 06:44:44;;;;;;;;;;;19.40;48.80;;;;;;5070022;28;20001;-72
2023/01/12 06:47:09;;;;;;;;;;;19.40;48.70;;;;;;5068397;28;20054;-72
2023/01/12 06:49:35;;;;;;;;;;;19.40;48.90;;;;;;5088879;28;19924;-72
2023/01/12 06:52:01;;;;;;;;;;;19.40;49.00;;;;;;5089272;28;20587;-71
2023/01/12 06:54:26;;;;;;;;;;;19.50;49.10;;;;;;5072737;28;20477;-75
2023/01/12 06:56:54;;;;;;;;;;;19.60;49.30;;;;;;5090162;28;19928;-73
2023/01/12 06:59:19;;;;;;;;;;;19.60;49.50;;;;;;5088890;28;19920;-77
2023/01/12 07:01:45;;;;;;;;;;;19.60;49.60;;;;;;5072321;28;19920;-71
2023/01/12 07:04:10;;;;;;;;;;;19.70;49.80;;;;;;5083291;28;19947;-73
2023/01/12 07:06:36;;;;;;;;;;;19.70;49.90;;;;;;5081871;28;19968;-76
2023/01/12 07:09:02;;;;;;;;;;;19.60;50.10;;;;;;5073073;28;19951;-74
2023/01/12 07:11:27;;;;;;;;;;;19.50;50.10;;;;;;5072698;28;19931;-72
2023/01/12 07:13:54;;;;;;;;;;;19.60;50.30;;;;;;5072460;28;19920;-72
2023/01/12 07:16:19;;;;;;;;;;;19.40;50.60;;;;;;5073774;28;19930;-71
2023/01/12 07:18:45;;;;;;;;;;;19.40;50.80;;;;;;5073088;28;19920;-72
2023/01/12 07:21:13;;;;;;;;;;;19.30;51.10;;;;;;5090165;28;19924;-70
2023/01/12 07:23:42;;;;;;;;;;;19.20;51.40;;;;;;5063933;28;19924;-71
2023/01/12 07:26:10;;;;;;;;;;;19.10;51.70;;;;;;5058269;28;19959;-69
2023/01/12 07:28:36;;;;;;;;;;;19.10;52.00;;;;;;5084914;28;19924;-68
2023/01/12 07:31:03;;;;;;;;;;;19.00;52.20;;;;;;5064956;28;19993;-69
2023/01/12 07:33:29;;;;;;;;;;;19.00;53.20;;;;;;5061582;28;20453;-70
2023/01/12 07:35:56;;;;;;;;;;;19.00;52.80;;;;;;5070624;28;19934;-72
2023/01/12 07:38:22;;;;;;;;;;;18.90;53.20;;;;;;5071863;28;19925;-68
2023/01/12 07:40:47;;;;;;;;;;;18.90;53.50;;;;;;5057137;28;20412;-72
2023/01/12 07:43:16;;;;;;;;;;;18.90;53.50;;;;;;5072145;28;19924;-71
2023/01/12 07:45:41;;;;;;;;;;;18.90;53.50;;;;;;5050553;28;19932;-71
2023/01/12 07:48:07;;;;;;;;;;;18.90;53.60;;;;;;5071364;28;19950;-70
2023/01/12 07:50:35;;;;;;;;;;;18.90;53.50;;;;;;5054890;28;19924;-70
2023/01/12 07:53:01;;;;;;;;;;;19.00;53.40;;;;;;5056113;28;19963;-75
2023/01/12 07:55:27;;;;;;;;;;;19.00;53.40;;;;;;5054704;28;19956;-70
2023/01/12 07:57:57;;;;;;;;;;;19.20;53.30;;;;;;5073490;28;19920;-71
2023/01/12 08:00:23;;;;;;;;;;;19.30;53.00;;;;;;5071015;28;19931;-71
2023/01/12 08:02:49;;;;;;;;;;;19.40;52.80;;;;;;5074332;28;19924;-71
2023/01/12 08:05:15;;;;;;;;;;;19.50;52.60;;;;;;5060853;28;19924;-69
2023/01/12 08:07:41;;;;;;;;;;;19.60;53.30;;;;;;5059061;28;20132;-71
2023/01/12 08:10:07;;;;;;;;;;;19.60;52.50;;;;;;5059953;28;20318;-70
2023/01/12 08:12:33;;;;;;;;;;;19.70;52.50;;;;;;5068821;28;19928;-72
2023/01/12 08:14:59;;;;;;;;;;;19.70;52.50;;;;;;5072366;28;20011;-73
2023/01/12 08:17:25;;;;;;;;;;;19.60;52.40;;;;;;5057883;28;20011;-71
2023/01/12 08:20:00;;;;;;;;;;;19.70;52.50;;;;;;5069923;28;19924;-71
2023/01/12 08:22:30;;;;;;;;;;;19.60;52.60;;;;;;5075959;28;20267;-72
2023/01/12 08:24:58;;;;;;;;;;;19.60;52.70;;;;;;5069286;28;19924;-73
2023/01/12 08:27:25;;;;;;;;;;;19.60;52.90;;;;;;5069783;28;19967;-71
2023/01/12 08:29:53;;;;;;;;;;;19.40;53.00;;;;;;5052982;28;19935;-73
2023/01/12 08:32:19;;;;;;;;;;;19.40;53.20;;;;;;5053029;28;19963;-74
2023/01/12 08:34:47;;;;;;;;;;;19.30;53.50;;;;;;5054789;28;20001;-73
2023/01/12 08:37:15;;;;;;;;;;;19.10;53.80;;;;;;5058281;28;20378;-72
2023/01/12 08:39:40;;;;;;;;;;;19.10;54.20;;;;;;5074097;28;19933;-73
2023/01/12 08:42:06;;;;;;;;;;;18.90;54.30;;;;;;5060049;28;19928;-72
2023/01/12 08:44:35;;;;;;;;;;;18.90;54.70;;;;;;5059935;28;20062;-73
2023/01/12 08:47:01;;;;;;;;;;;18.80;55.00;;;;;;5069208;28;20287;-72
2023/01/12 08:49:27;;;;;;;;;;;19.00;55.40;;;;;;5051386;28;19943;-71
2023/01/12 08:51:54;;;;;;;;;;;19.50;54.40;;;;;;5054245;28;20026;-73
2023/01/12 08:54:20;;;;;;;;;;;20.30;52.50;;;;;;5058755;28;19925;-73
2023/01/12 08:56:46;;;;;;;;;;;20.90;51.50;;;;;;5053624;28;20367;-73
2023/01/12 08:59:12;;;;;;;;;;;21.50;50.10;;;;;;5054000;28;19932;-73
2023/01/12 09:01:41;;;;;;;;;;;22.10;48.70;;;;;;5058758;28;19928;-71
2023/01/12 09:04:06;;;;;;;;;;;22.70;47.50;;;;;;5045617;28;19935;-72
2023/01/12 09:06:36;;;;;;;;;;;23.20;46.50;;;;;;5048886;28;19928;-72
2023/01/12 09:09:07;;;;;;;;;;;23.70;45.50;;;;;;5057451;28;19924;-69
2023/01/12 09:11:34;;;;;;;;;;;24.10;44.60;;;;;;5058058;28;20487;-73
2023/01/12 09:14:00;;;;;;;;;;;24.50;44.00;;;;;;5053872;28;19956;-73
2023/01/12 09:16:26;;;;;;;;;;;24.80;43.40;;;;;;5055659;28;20807;-70
2023/01/12 09:18:52;;;;;;;;;;;25.10;42.80;;;;;;5055815;28;19931;-74
2023/01/12 09:21:18;;;;;;;;;;;25.10;42.40;;;;;;5053045;28;19929;-73
2023/01/12 09:23:44;;;;;;;;;;;24.90;42.50;;;;;;5052830;28;19925;-73
2023/01/12 09:26:13;;;;;;;;;;;24.70;42.90;;;;;;5053579;28;19963;-74
2023/01/12 09:28:39;;;;;;;;;;;24.50;43.40;;;;;;5053899;28;20395;-75
2023/01/12 09:31:06;;;;;;;;;;;24.50;43.50;;;;;;5052405;28;19924;-75
2023/01/12 09:33:34;;;;;;;;;;;24.60;43.40;;;;;;5051854;28;20374;-74
2023/01/12 09:36:00;;;;;;;;;;;24.90;43.20;;;;;;5055718;28;19924;-75
2023/01/12 09:38:26;;;;;;;;;;;25.00;42.80;;;;;;5054027;28;19924;-74
2023/01/12 09:40:52;;;;;;;;;;;25.20;42.70;;;;;;5055242;28;20347;-73
2023/01/12 09:46:57;;;;;;;;;;;25.30;42.50;;;;;;5055240;28;19931;-71
2023/01/12 09:48:48;;;;;;;;;;;25.30;42.30;;;;;;5048934;28;19929;-72
2023/01/12 09:51:21;;;;;;;;;;;25.10;42.70;;;;;;5050367;28;20370;-73
2023/01/12 09:53:46;;;;;;;;;;;25.20;42.90;;;;;;5051992;28;19969;-73
2023/01/12 10:01:39;;;;;;;;;;;24.80;43.50;;;;;;5082483;27;19931;-72
2023/01/12 10:04:05;;;;;;;;;;;24.60;44.10;;;;;;5082804;28;19929;-72
2023/01/12 10:06:31;;;;;;;;;;;24.40;44.60;;;;;;5081200;28;19923;-74
2023/01/12 10:08:59;;;;;;;;;;;24.30;44.90;;;;;;5083695;28;20079;-71
2023/01/12 10:22:42;;;;;;;;;;;24.50;46.50;;;;;;5103262;27;20041;-70
2023/01/12 10:27:46;;;;;;;;;;;25.20;45.30;;;;;;5102626;27;1876768;-69
2023/01/12 10:33:14;;;;;;;;;;;24.90;44.90;;;;;;5102109;27;20434;-67
2023/01/12 10:35:50;;;;;;;;;;;24.60;45.40;;;;;;5093002;28;19934;-72
2023/01/12 10:38:25;;;;;;;;;;;24.40;45.90;;;;;;5106526;28;19955;-68
2023/01/12 10:41:10;;;;;;;;;;;24.30;46.10;;;;;;5102679;28;20424;-70
2023/01/12 10:43:37;;;;;;;;;;;24.20;46.20;;;;;;5106009;28;19924;-67
2023/01/12 10:46:05;;;;;;;;;;;24.00;46.60;;;;;;5106624;28;19924;-67
2023/01/12 10:48:31;;;;;;;;;;;24.00;46.70;;;;;;5111276;28;19931;-75
2023/01/12 10:51:04;;;;;;;;;;;24.20;46.90;;;;;;5101963;28;19966;-72
2023/01/12 10:53:34;;;;;;;;;;;24.30;47.50;;;;;;5106658;27;19935;-70
2023/01/12 10:56:09;;;;;;;;;;;24.50;46.30;;;;;;5108016;28;20018;-70
2023/01/12 10:58:38;;;;;;;;;;;24.60;46.30;;;;;;5101045;28;19946;-74
2023/01/12 11:01:04;;;;;;;;;;;24.60;46.10;;;;;;5111214;28;19924;-70
2023/01/12 11:03:36;;;;;;;;;;;24.70;46.10;;;;;;5106985;28;19928;-71
2023/01/12 11:06:21;;;;;;;;;;;24.70;45.80;;;;;;5103084;28;19924;-73
2023/01/12 11:08:47;;;;;;;;;;;24.70;45.90;;;;;;5108595;28;19928;-73
2023/01/12 11:11:32;;;;;;;;;;;24.50;46.40;;;;;;5104541;28;19930;-73
2023/01/12 11:13:59;;;;;;;;;;;24.50;46.50;;;;;;5104788;28;19989;-73
2023/01/12 11:16:34;;;;;;;;;;;24.40;46.70;;;;;;5103834;28;20551;-74
2023/01/12 11:21:43;;;;;;;;;;;24.10;47.10;;;;;;5101554;27;1867972;-75
2023/01/12 11:24:15;;;;;;;;;;;24.00;47.60;;;;;;5140016;27;19919;-74
2023/01/12 11:26:47;;;;;;;;;;;23.90;47.80;;;;;;5137679;27;19919;-72
2023/01/12 11:29:23;;;;;;;;;;;23.70;48.00;;;;;;5166682;27;19962;-72
2023/01/12 11:31:50;;;;;;;;;;;23.60;48.30;;;;;;5145315;27;19930;-71
2023/01/12 11:34:18;;;;;;;;;;;23.40;48.70;;;;;;5141898;27;19922;-71
2023/01/12 11:36:50;;;;;;;;;;;23.20;48.80;;;;;;5145310;27;19923;-70
2023/01/12 11:39:19;;;;;;;;;;;23.00;49.00;;;;;;5142006;27;20296;-71
2023/01/12 11:43:47;;;;;;;;;;;22.80;49.40;;;;;;5159235;27;19927;-70
2023/01/12 11:44:38;;;;;;;;;;;22.60;49.80;;;;;;5158614;27;19930;-66
2023/01/12 11:47:05;;;;;;;;;;;22.40;50.40;;;;;;5156657;27;19930;-66
2023/01/12 11:49:50;;;;;;;;;;;22.20;51.20;;;;;;5150999;27;19948;-66
2023/01/12 11:52:16;;;;;;;;;;;22.00;51.90;;;;;;5118498;27;19922;-80
2023/01/12 11:54:42;;;;;;;;;;;21.80;52.30;;;;;;5140706;27;19945;-70
2023/01/12 11:57:16;;;;;;;;;;;21.70;52.70;;;;;;5131092;27;19977;-71
2023/01/12 12:08:15;;;;;;;;;;;21.10;54.00;;;;;;5079975;27;19926;-73
2023/01/12 12:11:00;;;;;;;;;;;21.00;54.30;;;;;;5027700;28;21135;-70
2023/01/12 12:13:30;;;;;;;;;;;21.00;54.50;;;;;;5038615;28;20433;-68
2023/01/12 12:16:12;;;;;;;;;;;21.00;54.60;;;;;;5044937;28;20113;-75
2023/01/12 12:21:37;;;;;;;;;;;20.80;55.00;;;;;;5078128;27;1866282;-71
2023/01/12 12:24:12;;;;;;;;;;;20.70;55.00;;;;;;5122434;27;19923;-67
2023/01/12 12:26:42;;;;;;;;;;;20.60;55.30;;;;;;5117311;27;19926;-70
2023/01/12 12:32:12;;;;;;;;;;;20.50;55.60;;;;;;5106499;27;1867613;-70
2023/01/12 12:34:58;;;;;;;;;;;20.40;55.80;;;;;;5136791;27;19930;-69
2023/01/12 12:37:48;;;;;;;;;;;20.40;56.10;;;;;;5135622;27;19930;-72
2023/01/12 12:45:56;;;;;;;;;;;21.00;56.30;;;;;;5072522;28;20035;-71
2023/01/12 12:48:24;;;;;;;;;;;21.60;54.80;;;;;;5065478;28;19932;-70
2023/01/12 12:50:57;;;;;;;;;;;22.10;53.80;;;;;;5070070;28;20654;-67
2023/01/12 12:56:06;;;;;;;;;;;23.40;51.40;;;;;;5088489;27;20290;-78
2023/01/12 12:58:48;;;;;;;;;;;24.00;50.10;;;;;;5095855;28;19924;-73
2023/01/12 13:04:09;;;;;;;;;;;24.80;48.20;;;;;;5090686;27;20139;-71
2023/01/12 13:06:37;;;;;;;;;;;25.00;47.70;;;;;;5089780;28;19920;-77
2023/01/12 13:14:39;;;;;;;;;;;25.10;47.40;;;;;;5059040;28;19942;-71
2023/01/12 13:35:59;;;;;;;;;;;23.80;50.20;;;;;;5064299;27;20004;-73
2023/01/12 13:38:44;;;;;;;;;;;23.50;50.20;;;;;;5049231;28;19935;-84
2023/01/12 13:43:55;;;;;;;;;;;23.10;51.20;;;;;;5074158;27;20420;-65
2023/01/12 13:46:24;;;;;;;;;;;23.00;51.50;;;;;;5071676;28;19933;-70
2023/01/12 13:48:51;;;;;;;;;;;22.80;51.80;;;;;;5103637;28;19975;-73
2023/01/12 13:51:27;;;;;;;;;;;22.70;52.00;;;;;;5105219;28;19977;-70
2023/01/12 13:53:58;;;;;;;;;;;22.50;52.20;;;;;;5098975;28;20338;-69
2023/01/12 13:56:24;;;;;;;;;;;22.40;52.60;;;;;;5069800;28;19969;-68
2023/01/12 13:58:50;;;;;;;;;;;22.30;52.90;;;;;;5095833;28;20735;-72
2023/01/12 14:01:20;;;;;;;;;;;22.40;52.90;;;;;;5064312;28;19929;-73
2023/01/12 14:03:55;;;;;;;;;;;22.40;52.60;;;;;;5102524;28;19928;-75
2023/01/12 14:06:41;;;;;;;;;;;22.40;52.60;;;;;;5087391;28;19974;-73
2023/01/12 14:17:59;;;;;;;;;;;22.10;52.80;;;;;;5129898;27;19927;-78
2023/01/12 14:23:13;;;;;;;;;;;22.60;52.10;;;;;;5084579;27;20517;-71
2023/01/12 14:25:38;;;;;;;;;;;22.80;51.70;;;;;;5087077;28;20326;-69
2023/01/12 14:28:04;;;;;;;;;;;22.90;51.30;;;;;;5104284;27;19954;-72
2023/01/12 14:30:30;;;;;;;;;;;23.00;51.00;;;;;;5108844;28;19931;-72
2023/01/12 14:32:56;;;;;;;;;;;22.90;51.70;;;;;;5103999;28;19928;-67
2023/01/12 14:35:23;;;;;;;;;;;23.10;50.70;;;;;;5078598;28;19960;-71
2023/01/12 14:37:50;;;;;;;;;;;23.20;50.40;;;;;;5106005;28;19928;-70
2023/01/12 14:40:21;;;;;;;;;;;23.10;50.20;;;;;;5101903;28;19924;-71
2023/01/12 14:48:20;;;;;;;;;;;23.00;50.30;;;;;;5072283;28;19947;-67
2023/01/12 14:51:06;;;;;;;;;;;23.00;50.10;;;;;;5073164;28;19963;-71
2023/01/12 14:53:33;;;;;;;;;;;23.10;49.90;;;;;;5080893;28;19939;-72
2023/01/12 14:56:18;;;;;;;;;;;23.10;49.90;;;;;;5107215;28;19928;-71
2023/01/12 14:58:45;;;;;;;;;;;23.20;49.80;;;;;;5073990;28;19972;-71
2023/01/12 15:01:11;;;;;;;;;;;23.30;49.50;;;;;;5073686;28;19928;-73
2023/01/12 15:03:36;;;;;;;;;;;23.30;49.30;;;;;;5069398;28;19925;-74
2023/01/12 15:06:03;;;;;;;;;;;23.40;49.10;;;;;;5074069;28;19921;-74
2023/01/12 15:08:29;;;;;;;;;;;23.40;48.90;;;;;;5074967;28;19952;-78
2023/01/12 15:11:03;;;;;;;;;;;23.40;48.80;;;;;;5067320;28;19929;-79
2023/01/12 15:13:33;;;;;;;;;;;23.30;48.90;;;;;;5069924;28;19936;-82
2023/01/12 15:27:09;;;;;;;;;;;22.40;50.80;;;;;;5078665;28;19920;-78
2023/01/12 15:29:35;;;;;;;;;;;22.30;51.10;;;;;;5110295;27;19929;-71
2023/01/12 15:32:01;;;;;;;;;;;22.20;51.20;;;;;;5107251;28;19920;-72
2023/01/12 15:34:26;;;;;;;;;;;22.10;51.50;;;;;;5061308;28;19990;-81
2023/01/12 15:36:52;;;;;;;;;;;22.00;51.80;;;;;;5063353;28;20371;-76
2023/01/12 15:39:17;;;;;;;;;;;21.90;52.10;;;;;;5060299;28;19968;-78
2023/01/12 15:44:31;;;;;;;;;;;21.60;52.60;;;;;;5064185;28;19925;-70
2023/01/12 15:46:57;;;;;;;;;;;21.60;52.90;;;;;;5061064;28;20436;-69
2023/01/12 15:49:22;;;;;;;;;;;21.60;52.90;;;;;;5060891;28;20367;-72
2023/01/12 15:51:49;;;;;;;;;;;21.60;52.80;;;;;;5090145;28;19925;-77
2023/01/12 15:54:17;;;;;;;;;;;21.60;52.80;;;;;;5056741;28;19956;-76
2023/01/12 15:56:42;;;;;;;;;;;21.60;52.80;;;;;;5098664;28;20608;-70
2023/01/12 15:59:08;;;;;;;;;;;21.60;52.80;;;;;;5057189;28;19921;-74
2023/01/12 16:01:36;;;;;;;;;;;21.60;52.80;;;;;;5060082;28;20008;-70
2023/01/12 16:04:01;;;;;;;;;;;21.50;52.70;;;;;;5058113;28;20401;-69
2023/01/12 16:06:36;;;;;;;;;;;21.60;52.80;;;;;;5087903;28;19928;-70
2023/01/12 16:09:01;;;;;;;;;;;21.50;52.80;;;;;;5051527;28;19974;-69
2023/01/12 16:11:27;;;;;;;;;;;21.50;52.80;;;;;;5066024;28;19921;-76
2023/01/12 16:13:54;;;;;;;;;;;21.40;52.90;;;;;;5064978;28;20379;-69
2023/01/12 16:16:20;;;;;;;;;;;21.40;52.90;;;;;;5092612;28;20295;-70
2023/01/12 16:18:47;;;;;;;;;;;21.40;52.90;;;;;;5062416;28;19920;-69
2023/01/12 16:21:14;;;;;;;;;;;21.30;52.90;;;;;;5061228;28;19931;-69
2023/01/12 16:23:39;;;;;;;;;;;21.20;53.00;;;;;;5061057;28;19921;-70
2023/01/12 16:26:05;;;;;;;;;;;21.30;53.10;;;;;;5062482;28;19924;-69
2023/01/12 16:28:31;;;;;;;;;;;21.20;53.20;;;;;;5061069;28;19925;-69
2023/01/12 16:30:57;;;;;;;;;;;21.20;53.20;;;;;;5071055;28;19920;-69
2023/01/12 16:33:27;;;;;;;;;;;21.10;53.30;;;;;;5069187;28;19958;-72
2023/01/12 16:35:53;;;;;;;;;;;21.10;53.40;;;;;;5070799;28;19927;-71
2023/01/12 16:38:19;;;;;;;;;;;21.10;53.50;;;;;;5069497;28;19927;-71
2023/01/12 16:40:44;;;;;;;;;;;21.00;53.50;;;;;;5071431;28;19924;-72
2023/01/12 16:43:10;;;;;;;;;;;21.00;53.60;;;;;;5071261;28;19951;-74
2023/01/12 16:45:39;;;;;;;;;;;21.00;53.70;;;;;;5069588;28;19920;-71
2023/01/12 16:48:04;;;;;;;;;;;20.90;53.80;;;;;;5103668;28;19959;-72
2023/01/12 16:50:30;;;;;;;;;;;20.80;53.70;;;;;;5071114;28;20001;-72
2023/01/12 16:52:55;;;;;;;;;;;20.90;53.90;;;;;;5071650;28;19928;-71